createdAt,value
2024-05-09T00:02:18.885Z,1.90
2024-05-09T00:05:42.730Z,1.52
2024-05-09T00:09:05.438Z,1.45
2024-05-09T00:12:27.712Z,1.70
2024-05-09T00:15:50.141Z,1.73
2024-05-09T00:19:13.052Z,1.92
2024-05-09T00:22:35.330Z,1.52
2024-05-09T00:25:57.768Z,1.67
2024-05-09T00:29:20.270Z,1.58
2024-05-09T00:32:42.750Z,1.33
2024-05-09T00:36:05.123Z,1.27
2024-05-09T00:39:27.769Z,1.27
2024-05-09T00:42:50.010Z,1.77
2024-05-09T00:46:12.353Z,1.50
2024-05-09T00:49:34.804Z,1.48
2024-05-09T00:52:57.831Z,1.73
2024-05-09T00:56:22.211Z,1.92
2024-05-09T00:59:44.911Z,1.58
2024-05-09T01:03:07.603Z,1.75
2024-05-09T01:06:30.190Z,1.70
2024-05-09T01:09:52.041Z,1.48
2024-05-09T01:13:14.493Z,1.52
2024-05-09T01:16:37.040Z,1.83
2024-05-09T01:19:59.103Z,1.50
2024-05-09T01:23:21.618Z,1.20
2024-05-09T01:26:43.865Z,1.52
2024-05-09T01:30:09.525Z,2.28
2024-05-09T01:33:36.848Z,3.00
2024-05-09T01:36:59.305Z,3.80
2024-05-09T01:40:28.507Z,4.10
2024-05-09T01:43:56.308Z,6.18
2024-05-09T01:47:18.695Z,11.30
2024-05-09T01:50:42.934Z,10.52
2024-05-09T01:54:05.865Z,10.63
2024-05-09T01:57:28.222Z,8.45
2024-05-09T02:00:50.725Z,5.03
2024-05-09T02:04:13.151Z,2.92
2024-05-09T02:07:36.485Z,2.92
2024-05-09T02:10:58.949Z,2.33
2024-05-09T02:14:21.519Z,2.08
2024-05-09T02:17:44.367Z,2.28
2024-05-09T02:21:06.891Z,1.52
2024-05-09T02:24:29.321Z,1.52
2024-05-09T02:27:52.077Z,1.40
2024-05-09T02:31:14.161Z,1.38
2024-05-09T02:34:36.499Z,1.75
2024-05-09T02:37:58.974Z,1.38
2024-05-09T02:41:21.412Z,1.75
2024-05-09T02:44:43.593Z,1.70
2024-05-09T02:48:06.517Z,1.73
2024-05-09T02:51:29.154Z,2.25
2024-05-09T02:54:51.199Z,1.73
2024-05-09T02:58:13.594Z,1.80
2024-05-09T03:01:35.737Z,1.83
2024-05-09T03:04:57.833Z,1.88
2024-05-09T03:08:20.152Z,1.63
2024-05-09T03:11:42.787Z,1.95
2024-05-09T03:15:05.211Z,1.92
2024-05-09T03:18:27.464Z,1.83
2024-05-09T03:21:50.100Z,2.45
2024-05-09T03:25:12.155Z,2.80
2024-05-09T03:28:34.793Z,2.70
2024-05-09T03:31:57.194Z,3.05
2024-05-09T03:35:19.716Z,3.65
2024-05-09T03:38:42.097Z,2.22
2024-05-09T03:42:04.682Z,1.80
2024-05-09T03:45:27.022Z,2.10
2024-05-09T03:48:49.532Z,1.80
2024-05-09T03:52:37.003Z,2.95
2024-05-09T03:55:59.223Z,5.38
2024-05-09T03:59:21.510Z,3.00
2024-05-09T04:02:44.514Z,4.53
2024-05-09T04:06:07.300Z,6.43
2024-05-09T04:09:29.651Z,4.13
2024-05-09T04:12:53.736Z,4.10
2024-05-09T04:16:16.207Z,2.95
2024-05-09T04:19:38.561Z,2.40
2024-05-09T04:23:00.915Z,2.30
2024-05-09T04:26:23.188Z,2.30
2024-05-09T04:29:45.666Z,1.63
2024-05-09T04:33:10.903Z,2.10
2024-05-09T04:36:34.851Z,1.92
2024-05-09T04:39:59.978Z,2.10
2024-05-09T04:43:22.616Z,1.98
2024-05-09T04:46:44.831Z,2.13
2024-05-09T04:50:11.544Z,2.78
2024-05-09T04:53:36.697Z,3.03
2024-05-09T04:56:59.064Z,2.35
2024-05-09T05:00:28.609Z,2.42
2024-05-09T05:03:57.514Z,2.65
2024-05-09T05:07:19.817Z,4.85
2024-05-09T05:10:43.441Z,4.85
2024-05-09T05:14:05.791Z,3.40
2024-05-09T05:17:28.146Z,2.30
2024-05-09T05:20:51.308Z,2.50
2024-05-09T05:24:14.005Z,1.83
2024-05-09T05:27:36.135Z,2.53
2024-05-09T05:30:58.686Z,1.98
2024-05-09T05:34:21.949Z,1.80
2024-05-09T05:37:44.247Z,1.70
2024-05-09T05:41:06.606Z,2.83
2024-05-09T05:44:28.976Z,1.80
2024-05-09T05:47:52.761Z,2.17
2024-05-09T05:51:15.645Z,2.05
2024-05-09T05:54:38.066Z,2.22
2024-05-09T05:58:01.208Z,1.60
2024-05-09T06:01:23.414Z,2.28
2024-05-09T06:04:45.830Z,2.67
2024-05-09T06:08:08.470Z,1.77
2024-05-09T06:11:31.109Z,1.67
2024-05-09T06:14:53.989Z,1.88
2024-05-09T06:18:16.480Z,2.42
2024-05-09T06:21:38.878Z,1.63
2024-05-09T06:25:00.917Z,1.67
2024-05-09T06:28:23.661Z,2.25
2024-05-09T06:31:46.744Z,4.03
2024-05-09T06:35:08.988Z,3.20
2024-05-09T06:38:30.948Z,2.70
2024-05-09T06:41:53.343Z,1.88
2024-05-09T06:45:16.305Z,1.83
2024-05-09T06:48:38.583Z,2.00
2024-05-09T06:52:01.005Z,2.72
2024-05-09T06:55:23.338Z,2.28
2024-05-09T06:58:45.630Z,2.55
2024-05-09T07:02:08.128Z,2.30
2024-05-09T07:05:30.653Z,2.30
2024-05-09T07:08:52.950Z,2.17
2024-05-09T07:12:15.215Z,2.22
2024-05-09T07:15:37.424Z,1.77
2024-05-09T07:18:59.693Z,2.70
2024-05-09T07:22:23.428Z,1.75
2024-05-09T07:25:45.670Z,2.22
2024-05-09T07:29:08.187Z,1.85
2024-05-09T07:32:30.385Z,2.00
2024-05-09T07:35:53.387Z,1.77
2024-05-09T07:39:15.868Z,3.72
2024-05-09T07:42:38.417Z,1.80
2024-05-09T07:46:45.451Z,1.90
2024-05-09T07:51:32.149Z,1.75
2024-05-09T07:56:50.717Z,2.20
2024-05-09T08:00:17.340Z,1.80
2024-05-09T08:03:42.305Z,1.98
2024-05-09T08:07:04.732Z,1.48
2024-05-09T08:10:29.160Z,1.50
2024-05-09T08:13:51.855Z,2.20
2024-05-09T08:17:13.830Z,2.00
2024-05-09T08:20:39.273Z,3.75
2024-05-09T08:24:01.451Z,2.03
2024-05-09T08:27:23.678Z,2.17
2024-05-09T08:30:46.134Z,3.10
2024-05-09T08:34:08.703Z,3.00
2024-05-09T08:37:35.019Z,2.72
2024-05-09T08:41:03.735Z,3.03
2024-05-09T08:44:25.945Z,2.80
2024-05-09T08:47:51.624Z,2.65
2024-05-09T08:51:15.405Z,3.05
2024-05-09T08:54:38.042Z,1.80
2024-05-09T08:58:04.385Z,1.65
2024-05-09T09:01:31.982Z,1.65
2024-05-09T09:05:00.711Z,1.92
2024-05-09T09:08:23.656Z,1.52
2024-05-09T09:11:45.949Z,1.38
2024-05-09T09:15:08.480Z,2.08
2024-05-09T09:18:31.970Z,1.80
2024-05-09T09:21:54.496Z,2.03
2024-05-09T09:25:16.862Z,1.85
2024-05-09T09:28:41.004Z,1.70
2024-05-09T09:32:04.883Z,2.05
2024-05-09T09:35:29.377Z,1.75
2024-05-09T09:38:52.442Z,1.92
2024-05-09T09:42:19.424Z,1.77
2024-05-09T09:45:44.228Z,1.63
2024-05-09T09:49:07.668Z,1.48
2024-05-09T09:52:29.927Z,4.70
2024-05-09T09:55:53.809Z,3.63
2024-05-09T09:59:16.743Z,2.38
2024-05-09T10:02:40.164Z,1.98
2024-05-09T10:06:02.458Z,1.80
2024-05-09T10:09:25.619Z,2.20
2024-05-09T10:13:14.422Z,2.40
2024-05-09T10:16:36.946Z,2.20
2024-05-09T10:20:14.742Z,1.65
2024-05-09T10:23:46.515Z,1.50
2024-05-09T10:27:08.472Z,2.60
2024-05-09T10:30:35.820Z,2.08
2024-05-09T10:34:02.968Z,1.50
2024-05-09T10:37:29.258Z,1.55
2024-05-09T10:40:57.792Z,1.98
2024-05-09T10:44:22.384Z,2.25
2024-05-09T10:47:45.142Z,2.28
2024-05-09T10:51:07.481Z,3.80
2024-05-09T10:54:37.229Z,2.17
2024-05-09T10:57:59.682Z,2.53
2024-05-09T11:01:22.130Z,1.95
2024-05-09T11:04:48.608Z,2.20
2024-05-09T11:08:12.298Z,2.38
2024-05-09T11:11:35.351Z,2.22
2024-05-09T11:14:58.025Z,1.90
2024-05-09T11:18:25.937Z,2.47
2024-05-09T11:21:52.562Z,2.50
2024-05-09T11:25:15.363Z,2.00
2024-05-09T11:28:37.788Z,1.77
2024-05-09T11:32:00.005Z,2.00
2024-05-09T11:35:22.741Z,3.10
2024-05-09T11:38:44.799Z,2.72
2024-05-09T11:42:07.068Z,2.28
2024-05-09T11:45:29.380Z,2.40
2024-05-09T11:48:51.690Z,2.45
2024-05-09T11:52:14.200Z,2.20
2024-05-09T11:55:37.099Z,2.15
2024-05-09T11:58:59.771Z,2.83
2024-05-09T12:02:22.043Z,2.25
2024-05-09T12:05:44.919Z,2.47
2024-05-09T12:09:07.415Z,2.95
2024-05-09T12:12:29.881Z,3.08
2024-05-09T12:15:52.337Z,2.45
2024-05-09T12:19:15.000Z,1.95
2024-05-09T12:22:37.508Z,1.55
2024-05-09T12:26:00.064Z,2.33
2024-05-09T12:29:22.506Z,2.50
2024-05-09T12:32:46.704Z,2.15
2024-05-09T12:36:09.251Z,2.70
2024-05-09T12:39:31.817Z,2.80
2024-05-09T12:42:54.331Z,3.45
2024-05-09T12:46:16.707Z,2.17
2024-05-09T12:49:39.372Z,3.92
2024-05-09T12:53:04.576Z,2.30
2024-05-09T12:56:27.198Z,3.10
2024-05-09T12:59:49.483Z,3.45
2024-05-09T13:03:11.991Z,2.45
2024-05-09T13:06:34.997Z,4.07
2024-05-09T13:09:57.364Z,3.58
2024-05-09T13:13:20.193Z,5.57
2024-05-09T13:16:42.166Z,3.30
2024-05-09T13:20:07.088Z,3.47
2024-05-09T13:23:31.088Z,2.65
2024-05-09T13:26:53.317Z,4.65
2024-05-09T13:30:25.397Z,2.85
2024-05-09T13:33:52.235Z,2.25
2024-05-09T13:37:14.482Z,1.80
2024-05-09T13:40:37.100Z,1.88
2024-05-09T13:43:59.789Z,2.30
2024-05-09T13:47:22.875Z,2.13
2024-05-09T13:50:45.297Z,1.90
2024-05-09T13:54:07.339Z,2.50
2024-05-09T13:57:29.441Z,2.67
2024-05-09T14:00:51.886Z,1.75
2024-05-09T14:04:14.428Z,2.53
2024-05-09T14:07:37.129Z,4.55
2024-05-09T14:10:59.873Z,8.88
2024-05-09T14:14:22.224Z,6.78
2024-05-09T14:17:44.207Z,2.80
2024-05-09T14:21:06.702Z,2.80
2024-05-09T14:24:28.837Z,1.90
2024-05-09T14:27:51.621Z,2.20
2024-05-09T14:31:14.264Z,1.75
2024-05-09T14:34:36.881Z,2.72
2024-05-09T14:37:59.555Z,3.15
2024-05-09T14:41:21.899Z,3.20
2024-05-09T14:44:44.236Z,2.95
2024-05-09T14:48:07.593Z,6.55
2024-05-09T14:51:29.574Z,4.00
2024-05-09T14:55:00.044Z,4.63
2024-05-09T14:58:24.653Z,2.92
2024-05-09T15:01:47.427Z,4.82
2024-05-09T15:05:11.591Z,3.92
2024-05-09T15:08:33.862Z,3.65
2024-05-09T15:11:56.357Z,4.32
2024-05-09T15:15:19.170Z,3.95
2024-05-09T15:18:43.763Z,4.13
2024-05-09T15:22:06.678Z,3.53
2024-05-09T15:25:29.123Z,3.40
2024-05-09T15:28:51.826Z,4.65
2024-05-09T15:32:15.106Z,5.00
2024-05-09T15:35:41.731Z,3.85
2024-05-09T15:39:04.079Z,4.47
2024-05-09T15:42:26.745Z,3.63
2024-05-09T15:45:49.344Z,7.40
2024-05-09T15:49:12.135Z,4.72
2024-05-09T15:52:34.268Z,3.17
2024-05-09T15:55:56.949Z,4.20
2024-05-09T15:59:19.777Z,3.92
2024-05-09T16:02:42.308Z,2.85
2024-05-09T16:06:04.941Z,2.45
2024-05-09T16:09:27.671Z,3.35
2024-05-09T16:12:50.333Z,2.90
2024-05-09T16:16:13.055Z,6.03
2024-05-09T16:19:35.490Z,14.60
2024-05-09T16:22:58.366Z,13.23
2024-05-09T16:26:21.512Z,3.92
2024-05-09T16:29:45.389Z,10.98
2024-05-09T16:33:08.908Z,15.48
2024-05-09T16:36:32.416Z,24.58
2024-05-09T16:39:55.120Z,18.08
2024-05-09T16:43:18.065Z,6.70
2024-05-09T16:46:40.789Z,10.00
2024-05-09T16:50:04.922Z,20.15
2024-05-09T16:53:28.046Z,8.38
2024-05-09T16:56:51.102Z,3.17
2024-05-09T17:00:21.924Z,2.38
2024-05-09T17:03:52.654Z,3.60
2024-05-09T17:07:15.469Z,2.70
2024-05-09T17:10:38.260Z,2.20
2024-05-09T17:14:00.543Z,3.95
2024-05-09T17:17:23.167Z,2.15
2024-05-09T17:20:46.159Z,2.60
2024-05-09T17:24:09.013Z,2.10
2024-05-09T17:27:31.205Z,2.65
2024-05-09T17:30:53.524Z,2.70
2024-05-09T17:34:16.249Z,2.25
2024-05-09T17:37:38.634Z,2.58
2024-05-09T17:41:00.971Z,2.47
2024-05-09T17:44:23.283Z,2.95
2024-05-09T17:47:45.530Z,3.72
2024-05-09T17:51:08.589Z,3.65
2024-05-09T17:54:30.774Z,4.00
2024-05-09T17:57:53.450Z,4.13
2024-05-09T18:01:16.226Z,4.00
2024-05-09T18:04:38.971Z,4.55
2024-05-09T18:08:01.534Z,6.57
2024-05-09T18:11:23.847Z,4.93
2024-05-09T18:14:46.022Z,5.85
2024-05-09T18:18:09.609Z,5.43
2024-05-09T18:21:32.088Z,6.15
2024-05-09T18:24:54.658Z,5.95
2024-05-09T18:28:17.780Z,7.75
2024-05-09T18:31:40.416Z,4.90
2024-05-09T18:35:02.605Z,3.40
2024-05-09T18:38:27.343Z,4.57
2024-05-09T18:41:49.586Z,4.82
2024-05-09T18:45:12.051Z,5.80
2024-05-09T18:48:35.427Z,5.35
2024-05-09T18:51:58.328Z,5.70
2024-05-09T18:55:20.995Z,6.15
2024-05-09T18:58:43.255Z,6.38
2024-05-09T19:02:06.786Z,5.55
2024-05-09T19:05:29.879Z,6.63
2024-05-09T19:08:52.741Z,10.45
2024-05-09T19:12:15.200Z,11.85
2024-05-09T19:15:37.628Z,10.35
2024-05-09T19:19:00.233Z,12.35
2024-05-09T19:22:22.978Z,11.05
2024-05-09T19:25:45.600Z,9.52
2024-05-09T19:29:08.556Z,7.68
2024-05-09T19:32:30.891Z,5.80
2024-05-09T19:35:52.952Z,4.78
2024-05-09T19:39:15.388Z,3.90
2024-05-09T19:42:38.167Z,3.95
2024-05-09T19:46:00.927Z,3.50
2024-05-09T19:49:23.340Z,3.20
2024-05-09T19:52:45.783Z,3.75
2024-05-09T19:56:08.640Z,3.50
2024-05-09T19:59:31.096Z,2.65
2024-05-09T20:02:53.481Z,2.42
2024-05-09T20:06:16.088Z,2.25
2024-05-09T20:09:38.322Z,2.20
2024-05-09T20:13:00.193Z,2.78
2024-05-09T20:16:22.511Z,2.40
2024-05-09T20:19:45.047Z,3.03
2024-05-09T20:23:08.063Z,2.10
2024-05-09T20:26:31.003Z,2.40
2024-05-09T20:29:53.321Z,2.67
2024-05-09T20:33:15.895Z,2.58
2024-05-09T20:36:38.474Z,2.08
2024-05-09T20:40:01.022Z,2.10
2024-05-09T20:43:23.436Z,2.25
2024-05-09T20:46:46.065Z,1.88
2024-05-09T20:50:20.232Z,2.50
2024-05-09T20:53:50.615Z,1.85
2024-05-09T20:57:13.175Z,2.47
2024-05-09T21:00:40.178Z,2.08
2024-05-09T21:04:06.319Z,2.50
2024-05-09T21:07:28.899Z,2.33
2024-05-09T21:10:51.204Z,2.30
2024-05-09T21:14:13.489Z,2.38
2024-05-09T21:17:36.236Z,2.42
2024-05-09T21:20:58.891Z,2.40
2024-05-09T21:24:20.932Z,2.97
2024-05-09T21:27:43.332Z,2.65
2024-05-09T21:31:06.006Z,2.28
2024-05-09T21:34:28.438Z,2.25
2024-05-09T21:37:50.923Z,2.25
2024-05-09T21:41:13.179Z,3.20
2024-05-09T21:44:35.571Z,3.17
2024-05-09T21:47:58.285Z,3.30
2024-05-09T21:51:21.119Z,2.55
2024-05-09T21:54:43.324Z,2.05
2024-05-09T21:58:05.937Z,2.33
2024-05-09T22:01:29.042Z,2.30
2024-05-09T22:04:51.502Z,2.50
2024-05-09T22:08:15.006Z,2.63
2024-05-09T22:11:37.497Z,2.00
2024-05-09T22:15:00.136Z,2.00
2024-05-09T22:18:22.554Z,1.70
2024-05-09T22:21:45.323Z,2.25
2024-05-09T22:25:08.538Z,2.10
2024-05-09T22:28:30.858Z,1.88
2024-05-09T22:31:53.147Z,2.33
2024-05-09T22:35:15.104Z,2.47
2024-05-09T22:38:37.325Z,1.98
2024-05-09T22:41:59.484Z,2.10
2024-05-09T22:45:22.013Z,2.22
2024-05-09T22:48:44.557Z,2.53
2024-05-09T22:52:07.291Z,2.42
2024-05-09T22:55:29.658Z,2.72
2024-05-09T22:58:51.702Z,2.88
2024-05-09T23:02:14.371Z,2.90
2024-05-09T23:05:36.570Z,2.72
2024-05-09T23:08:59.039Z,2.88
2024-05-09T23:12:21.501Z,3.40
2024-05-09T23:15:43.772Z,2.97
2024-05-09T23:19:06.389Z,3.28
2024-05-09T23:22:28.621Z,3.67
2024-05-09T23:25:51.067Z,3.47
2024-05-09T23:29:13.615Z,3.45
2024-05-09T23:32:36.064Z,4.50
2024-05-09T23:35:58.917Z,3.42
2024-05-09T23:39:21.265Z,3.65
2024-05-09T23:42:43.627Z,3.60
2024-05-09T23:46:06.186Z,3.63
2024-05-09T23:49:28.535Z,4.10
2024-05-09T23:52:50.657Z,3.65
2024-05-09T23:56:17.190Z,3.13
2024-05-09T23:59:39.628Z,4.80
